| time (UTC) | temp F | wind direction | speed knots | gust knots | rain 1hr in | rain 24hr in | rain mn in | humidity % | barometer mb |
| 20260508013057 | 74 | 256 | 1.7 | 3.5 | 0.00 | 0.00 | 0.00 | 57 | 1011.4 |
| 20260508011557 | 74 | 295 | 0.9 | 8.7 | 0.00 | 0.00 | 0.00 | 56 | 1011.4 |
| 20260508010107 | 75 | 259 | 0.9 | 7.8 | 0.00 | 0.00 | 0.00 | 55 | 1011.3 |
| 20260508004556 | 75 | 258 | 0.9 | 7.8 | 0.00 | 0.00 | 0.00 | 55 | 1011.2 |
| 20260508003103 | 75 | 250 | 0.9 | 6.1 | 0.00 | 0.00 | 0.00 | 56 | 1011.2 |
| 20260508001559 | 76 | 281 | 2.6 | 7.8 | 0.00 | 0.00 | 0.00 | 55 | 1011.1 |
| 20260508000054 | 77 | 271 | 2.6 | 7.0 | 0.00 | 0.00 | 0.00 | 52 | 1011.2 |
| 20260507234554 | 78 | 270 | 0.9 | 7.0 | 0.00 | 0.00 | 0.00 | 52 | 1011.2 |
| 20260507233052 | 79 | 261 | 1.7 | 7.0 | 0.00 | 0.00 | 0.00 | 51 | 1011.1 |
| 20260507231552 | 79 | 261 | 0.9 | 9.6 | 0.00 | 0.00 | 0.00 | 51 | 1011.2 |
| 20260507230107 | 78 | 302 | 0.9 | 9.6 | 0.00 | 0.00 | 0.00 | 53 | 1011.2 |
| 20260507224549 | 79 | 279 | 2.6 | 11.3 | 0.00 | 0.00 | 0.00 | 51 | 1011.4 |
| 20260507223132 | 79 | 273 | 1.7 | 7.8 | 0.00 | 0.00 | 0.00 | 50 | 1011.5 |
| 20260507221544 | 79 | 296 | 0.9 | 4.3 | 0.00 | 0.00 | 0.00 | 50 | 1011.7 |
| 20260507220041 | 80 | 259 | 3.5 | 7.8 | 0.00 | 0.00 | 0.00 | 49 | 1012.0 |
| 20260507214547 | 79 | 249 | 0.9 | 8.7 | 0.00 | 0.00 | 0.00 | 50 | 1012.1 |
| 20260507213037 | 79 | 279 | 3.5 | 9.6 | 0.00 | 0.00 | 0.00 | 49 | 1012.3 |
| 20260507211535 | 79 | 271 | 1.7 | 7.0 | 0.00 | 0.00 | 0.00 | 51 | 1012.3 |
| 20260507210040 | 78 | 267 | 2.6 | 10.4 | 0.00 | 0.00 | 0.00 | 52 | 1012.4 |
| 20260507204534 | 78 | 257 | 1.7 | 8.7 | 0.00 | 0.00 | 0.00 | 52 | 1012.5 |
| 20260507203036 | 77 | 270 | 4.3 | 11.3 | 0.00 | 0.00 | 0.00 | 53 | 1012.5 |
| 20260507201529 | 78 | 272 | 5.2 | 11.3 | 0.00 | 0.00 | 0.00 | 52 | 1012.4 |
| 20260507200047 | 78 | 268 | 2.6 | 7.8 | 0.00 | 0.00 | 0.00 | 52 | 1012.7 |
| 20260507194528 | 77 | 269 | 4.3 | 10.4 | 0.00 | 0.00 | 0.00 | 52 | 1012.7 |
| 20260507193038 | 76 | 271 | 4.3 | 9.6 | 0.00 | 0.00 | 0.00 | 52 | 1013.1 |
| 20260507191520 | 75 | 269 | 5.2 | 9.6 | 0.00 | 0.00 | 0.00 | 54 | 1013.1 |
| 20260507190020 | 76 | 290 | 2.6 | 8.7 | 0.00 | 0.00 | 0.00 | 52 | 1013.6 |
| 20260507184513 | 74 | 268 | 4.3 | 8.7 | 0.00 | 0.00 | 0.00 | 55 | 1013.6 |
| 20260507183014 | 74 | 289 | 1.7 | 7.8 | 0.00 | 0.00 | 0.00 | 57 | 1013.6 |
| 20260507181505 | 72 | 278 | 2.6 | 7.8 | 0.00 | 0.00 | 0.00 | 59 | 1013.7 |
| 20260507180005 | 72 | 288 | 2.6 | 7.0 | 0.00 | 0.00 | 0.00 | 59 | 1013.7 |
| 20260507174603 | 71 | 278 | 2.6 | 7.8 | 0.00 | 0.00 | 0.00 | 60 | 1013.9 |
| 20260507173100 | 70 | 283 | 2.6 | 7.8 | 0.00 | 0.00 | 0.00 | 61 | 1013.9 |
| 20260507171602 | 69 | 292 | 2.6 | 6.1 | 0.00 | 0.00 | 0.00 | 63 | 1014.0 |
| 20260507170051 | 67 | 270 | 4.3 | 7.8 | 0.00 | 0.00 | 0.00 | 66 | 1014.1 |
| 20260507164547 | 66 | 278 | 3.5 | 7.0 | 0.00 | 0.00 | 0.00 | 69 | 1014.2 |
| 20260507163044 | 65 | 273 | 2.6 | 7.8 | 0.00 | 0.00 | 0.00 | 72 | 1014.3 |
| 20260507161550 | 63 | 284 | 2.6 | 7.8 | 0.00 | 0.00 | 0.00 | 73 | 1014.3 |
| 20260507160040 | 62 | 253 | 2.6 | 7.0 | 0.00 | 0.00 | 0.00 | 75 | 1014.4 |
| 20260507154533 | 61 | 273 | 1.7 | 4.3 | 0.00 | 0.00 | 0.00 | 77 | 1014.5 |
| 20260507153028 | 60 | 307 | 1.7 | 6.1 | 0.00 | 0.00 | 0.00 | 79 | 1014.6 |
| 20260507151527 | 59 | 261 | 2.6 | 4.3 | 0.00 | 0.00 | 0.00 | 81 | 1014.7 |
| 20260507150022 | 57 | 282 | 1.7 | 3.5 | 0.00 | 0.00 | 0.00 | 84 | 1014.6 |
| 20260507144527 | 56 | 96 | 0.9 | 2.6 | 0.00 | 0.00 | 0.00 | 85 | 1014.7 |
| 20260507143021 | 54 | 96 | 0.0 | 0.0 | 0.00 | 0.00 | 0.00 | 87 | 1014.6 |
| 20260507141521 | 53 | 96 | 0.0 | 0.9 | 0.00 | 0.00 | 0.00 | 88 | 1014.4 |
| 20260507140020 | 53 | 94 | 0.0 | 0.0 | 0.00 | 0.00 | 0.00 | 88 | 1014.4 |
| 20260507134521 | 52 | 92 | 0.0 | 0.0 | 0.00 | 0.00 | 0.00 | 88 | 1014.2 |
| 20260507133018 | 52 | 102 | 0.0 | 0.0 | 0.00 | 0.00 | 0.00 | 88 | 1013.9 |
| 20260507131524 | 52 | 99 | 0.0 | 2.6 | 0.00 | 0.00 | 0.00 | 88 | 1013.8 |
| 20260507130016 | 52 | 103 | 0.0 | 1.7 | 0.00 | 0.00 | 0.00 | 88 | 1013.6 |
| 20260507124515 | 52 | 103 | 0.0 | 1.7 | 0.00 | 0.00 | 0.00 | 88 | 1013.6 |
| 20260507123014 | 52 | 103 | 0.0 | 1.7 | 0.00 | 0.00 | 0.00 | 88 | 1013.7 |
| 20260507121512 | 52 | 103 | 0.0 | 0.9 | 0.00 | 0.00 | 0.00 | 86 | 1013.8 |
| 20260507120010 | 52 | 101 | 0.0 | 0.0 | 0.00 | 0.00 | 0.00 | 86 | 1013.7 |
| 20260507114509 | 52 | 102 | 0.9 | 2.6 | 0.00 | 0.00 | 0.00 | 87 | 1013.7 |
| 20260507113007 | 52 | 102 | 1.7 | 3.5 | 0.00 | 0.00 | 0.00 | 86 | 1013.6 |
| 20260507111509 | 53 | 100 | 0.9 | 2.6 | 0.00 | 0.00 | 0.00 | 86 | 1013.7 |
| 20260507110005 | 53 | 100 | 1.7 | 3.5 | 0.00 | 0.00 | 0.00 | 86 | 1013.8 |
| 20260507104503 | 53 | 100 | 0.9 | 2.6 | 0.00 | 0.00 | 0.00 | 85 | 1013.9 |
| 20260507103001 | 53 | 99 | 0.0 | 2.6 | 0.00 | 0.00 | 0.00 | 85 | 1014.0 |
| 20260507101602 | 53 | 99 | 0.9 | 3.5 | 0.00 | 0.00 | 0.00 | 85 | 1014.1 |
| 20260507100112 | 54 | 321 | 0.9 | 2.6 | 0.00 | 0.00 | 0.00 | 85 | 1014.2 |
| 20260507094555 | 54 | 338 | 0.0 | 1.7 | 0.00 | 0.00 | 0.00 | 84 | 1014.3 |
| 20260507093056 | 54 | 341 | 0.9 | 1.7 | 0.00 | 0.00 | 0.00 | 84 | 1014.5 |
| 20260507091550 | 55 | 343 | 0.0 | 1.7 | 0.00 | 0.00 | 0.00 | 83 | 1014.7 |
| 20260507090049 | 55 | 342 | 0.0 | 1.7 | 0.00 | 0.00 | 0.00 | 82 | 1014.7 |
| 20260507084549 | 56 | 341 | 0.9 | 2.6 | 0.00 | 0.00 | 0.00 | 81 | 1015.0 |
| 20260507083058 | 56 | 343 | 0.9 | 2.6 | 0.00 | 0.00 | 0.00 | 81 | 1015.1 |
| 20260507081546 | 56 | 344 | 0.0 | 2.6 | 0.00 | 0.00 | 0.00 | 80 | 1015.1 |
| 20260507080038 | 57 | 255 | 0.9 | 1.7 | 0.00 | 0.00 | 0.00 | 80 | 1015.1 |
| 20260507074536 | 57 | 256 | 0.9 | 1.7 | 0.00 | 0.00 | 0.00 | 80 | 1015.3 |
| 20260507073041 | 58 | 257 | 0.9 | 2.6 | 0.00 | 0.00 | 0.00 | 79 | 1015.1 |
| 20260507071535 | 58 | 255 | 0.0 | 1.7 | 0.00 | 0.00 | 0.00 | 78 | 1015.1 |
| 20260507070037 | 58 | 252 | 0.0 | 1.7 | 0.00 | 0.00 | 0.00 | 79 | 1015.3 |
| 20260507064631 | 59 | 252 | 0.0 | 1.7 | 0.00 | 0.00 | 0.00 | 77 | 1015.4 |
| 20260507063031 | 59 | 252 | 0.0 | 1.7 | 0.00 | 0.00 | 0.00 | 77 | 1015.5 |
| 20260507061529 | 59 | 252 | 0.9 | 2.6 | 0.00 | 0.00 | 0.00 | 77 | 1015.4 |
| 20260507060027 | 60 | 252 | 0.0 | 0.9 | 0.00 | 0.00 | 0.00 | 76 | 1015.4 |
| 20260507054533 | 60 | 252 | 0.9 | 1.7 | 0.00 | 0.00 | 0.00 | 76 | 1015.4 |
| 20260507053026 | 60 | 252 | 0.0 | 1.7 | 0.00 | 0.00 | 0.00 | 75 | 1015.4 |
| 20260507051527 | 60 | 252 | 0.9 | 2.6 | 0.00 | 0.00 | 0.00 | 76 | 1015.3 |
| 20260507050033 | 61 | 250 | 0.0 | 0.0 | 0.00 | 0.00 | 0.00 | 75 | 1015.2 |
| 20260507044534 | 61 | 251 | 0.0 | 0.9 | 0.00 | 0.00 | 0.00 | 74 | 1015.2 |
| 20260507043024 | 61 | 252 | 0.0 | 0.9 | 0.00 | 0.00 | 0.00 | 73 | 1015.1 |
| 20260507041530 | 62 | 252 | 0.0 | 1.7 | 0.00 | 0.00 | 0.00 | 72 | 1015.2 |
| 20260507040023 | 62 | 252 | 0.0 | 0.9 | 0.00 | 0.00 | 0.00 | 70 | 1015.2 |
| 20260507034523 | 63 | 252 | 0.0 | 1.7 | 0.00 | 0.00 | 0.00 | 69 | 1014.9 |
| 20260507033028 | 63 | 252 | 0.0 | 1.7 | 0.00 | 0.00 | 0.00 | 68 | 1014.6 |
| 20260507031526 | 64 | 252 | 0.0 | 0.9 | 0.00 | 0.00 | 0.00 | 66 | 1014.6 |
| 20260507030022 | 65 | 251 | 0.0 | 3.5 | 0.00 | 0.00 | 0.00 | 64 | 1014.4 |
| 20260507024523 | 67 | 259 | 0.0 | 2.6 | 0.00 | 0.00 | 0.00 | 61 | 1014.3 |
| 20260507023020 | 68 | 199 | 0.0 | 1.7 | 0.00 | 0.00 | 0.00 | 59 | 1014.2 |
| 20260507021520 | 70 | 183 | 0.0 | 2.6 | 0.00 | 0.00 | 0.00 | 56 | 1014.1 |
| 20260507020020 | 71 | 235 | 0.9 | 3.5 | 0.00 | 0.00 | 0.00 | 54 | 1013.9 |
| 20260507014526 | 73 | 262 | 0.9 | 4.3 | 0.00 | 0.00 | 0.00 | 52 | 1013.7 |